KMTC/MTC METAR and TAF weather

Enter ICAO airport designator
Station Type Date Time Source
KMTC METAR 2020/09/19 01:56 UTC NOAA

KMTC 190156Z 36007KT 10SM CLR 07/02 A3035 RMK AO2A SLP285 T00670016


Station Type Date Time Source
KMTC Decoded METAR 2020/09/19 01:56 UTC NOAA

Selfridge Air National Guard Base, MI, United States (KMTC) 42-37N 082-50W
Sep 18, 2020 - 09:56 PM EDT / 2020.09.19 0156 UTC
Wind: from the N (360 degrees) at 8 MPH (7 KT):0
Visibility: 10 mile(s):0
Sky conditions: clear
Temperature: 44.1 F (6.7 C)
Dew Point: 34.9 F (1.6 C)
Relative Humidity: 69%
Pressure (altimeter): 30.35 in. Hg (1027 hPa)
ob: KMTC 190156Z 36007KT 10SM CLR 07/02 A3035 RMK AO2A SLP285 T00670016
cycle: 2

Station Type Date Time Source
KMTC TAF 2020/09/19 01:23 UTC NOAA

TAF KMTC 190100Z 1901/2007 01006KT 9999 FEW050 QNH3030INS TX18/1918Z TN04/1909Z LAST NO
AMDS AFT 1903 NEXT 1909

Example: see airport list